sensor_id;sensor_type;location;lat;lon;timestamp;P1;durP1;ratioP1;P2;durP2;ratioP2
32475;SDS011;18929;48.008;10.882;2022-10-31T00:00:17;11.20;;;4.78;;
32475;SDS011;18929;48.008;10.882;2022-10-31T00:02:44;11.32;;;4.47;;
32475;SDS011;18929;48.008;10.882;2022-10-31T00:05:11;12.25;;;4.68;;
32475;SDS011;18929;48.008;10.882;2022-10-31T00:07:40;13.55;;;4.40;;
32475;SDS011;18929;48.008;10.882;2022-10-31T00:10:07;11.30;;;4.90;;
32475;SDS011;18929;48.008;10.882;2022-10-31T00:12:35;13.90;;;4.78;;
32475;SDS011;18929;48.008;10.882;2022-10-31T00:15:02;13.55;;;4.47;;
32475;SDS011;18929;48.008;10.882;2022-10-31T00:17:29;15.23;;;4.40;;
32475;SDS011;18929;48.008;10.882;2022-10-31T00:19:56;14.02;;;4.78;;
32475;SDS011;18929;48.008;10.882;2022-10-31T00:22:23;12.77;;;5.03;;
32475;SDS011;18929;48.008;10.882;2022-10-31T00:24:52;12.82;;;5.03;;
32475;SDS011;18929;48.008;10.882;2022-10-31T00:27:19;14.00;;;4.90;;
32475;SDS011;18929;48.008;10.882;2022-10-31T00:29:46;12.52;;;4.07;;
32475;SDS011;18929;48.008;10.882;2022-10-31T00:32:13;11.25;;;4.40;;
32475;SDS011;18929;48.008;10.882;2022-10-31T00:34:40;16.58;;;4.47;;
32475;SDS011;18929;48.008;10.882;2022-10-31T00:37:07;10.20;;;4.05;;
32475;SDS011;18929;48.008;10.882;2022-10-31T00:39:34;9.57;;;4.15;;
32475;SDS011;18929;48.008;10.882;2022-10-31T00:42:02;10.40;;;4.38;;
32475;SDS011;18929;48.008;10.882;2022-10-31T00:44:30;12.95;;;4.15;;
32475;SDS011;18929;48.008;10.882;2022-10-31T00:46:57;8.55;;;3.83;;
32475;SDS011;18929;48.008;10.882;2022-10-31T00:49:24;13.10;;;4.70;;
32475;SDS011;18929;48.008;10.882;2022-10-31T00:51:51;11.02;;;4.30;;
32475;SDS011;18929;48.008;10.882;2022-10-31T00:54:18;16.77;;;4.43;;
32475;SDS011;18929;48.008;10.882;2022-10-31T00:56:45;9.43;;;3.85;;
32475;SDS011;18929;48.008;10.882;2022-10-31T00:59:13;10.45;;;4.00;;
32475;SDS011;18929;48.008;10.882;2022-10-31T01:01:40;13.05;;;4.35;;
32475;SDS011;18929;48.008;10.882;2022-10-31T01:04:07;10.60;;;4.25;;
32475;SDS011;18929;48.008;10.882;2022-10-31T01:06:34;13.35;;;4.95;;
32475;SDS011;18929;48.008;10.882;2022-10-31T01:09:01;10.80;;;4.40;;
32475;SDS011;18929;48.008;10.882;2022-10-31T01:11:28;8.98;;;3.97;;
32475;SDS011;18929;48.008;10.882;2022-10-31T01:16:31;12.63;;;4.25;;
32475;SDS011;18929;48.008;10.882;2022-10-31T01:18:58;9.63;;;4.22;;
32475;SDS011;18929;48.008;10.882;2022-10-31T01:21:26;13.30;;;4.22;;
32475;SDS011;18929;48.008;10.882;2022-10-31T01:23:54;16.02;;;4.90;;
32475;SDS011;18929;48.008;10.882;2022-10-31T01:26:22;13.43;;;5.13;;
32475;SDS011;18929;48.008;10.882;2022-10-31T01:28:52;13.52;;;4.85;;
32475;SDS011;18929;48.008;10.882;2022-10-31T01:31:20;11.18;;;4.55;;
32475;SDS011;18929;48.008;10.882;2022-10-31T01:33:50;10.00;;;4.30;;
32475;SDS011;18929;48.008;10.882;2022-10-31T01:36:19;12.18;;;4.22;;
32475;SDS011;18929;48.008;10.882;2022-10-31T01:38:47;13.13;;;4.20;;
32475;SDS011;18929;48.008;10.882;2022-10-31T01:41:16;12.07;;;3.90;;
32475;SDS011;18929;48.008;10.882;2022-10-31T01:43:46;11.40;;;4.05;;
32475;SDS011;18929;48.008;10.882;2022-10-31T01:46:16;12.25;;;4.05;;
32475;SDS011;18929;48.008;10.882;2022-10-31T01:48:47;12.75;;;4.45;;
32475;SDS011;18929;48.008;10.882;2022-10-31T01:51:15;12.30;;;4.40;;
32475;SDS011;18929;48.008;10.882;2022-10-31T01:53:45;14.32;;;4.45;;
32475;SDS011;18929;48.008;10.882;2022-10-31T01:56:13;17.05;;;5.22;;
32475;SDS011;18929;48.008;10.882;2022-10-31T01:58:41;11.82;;;4.00;;
32475;SDS011;18929;48.008;10.882;2022-10-31T02:01:10;12.43;;;4.32;;
32475;SDS011;18929;48.008;10.882;2022-10-31T02:03:39;10.45;;;4.07;;
32475;SDS011;18929;48.008;10.882;2022-10-31T02:06:07;14.82;;;4.90;;
32475;SDS011;18929;48.008;10.882;2022-10-31T02:08:40;9.27;;;4.30;;
32475;SDS011;18929;48.008;10.882;2022-10-31T02:11:08;9.40;;;3.70;;
32475;SDS011;18929;48.008;10.882;2022-10-31T02:13:36;16.08;;;3.92;;
32475;SDS011;18929;48.008;10.882;2022-10-31T02:16:04;10.75;;;3.72;;
32475;SDS011;18929;48.008;10.882;2022-10-31T02:18:31;12.30;;;4.90;;
32475;SDS011;18929;48.008;10.882;2022-10-31T02:21:00;13.15;;;4.65;;
32475;SDS011;18929;48.008;10.882;2022-10-31T02:26:54;11.73;;;3.75;;
32475;SDS011;18929;48.008;10.882;2022-10-31T02:29:37;8.13;;;3.55;;
32475;SDS011;18929;48.008;10.882;2022-10-31T02:32:18;10.60;;;3.72;;
32475;SDS011;18929;48.008;10.882;2022-10-31T02:34:52;11.55;;;4.15;;
32475;SDS011;18929;48.008;10.882;2022-10-31T02:37:25;13.68;;;4.03;;
32475;SDS011;18929;48.008;10.882;2022-10-31T02:39:59;10.32;;;4.22;;
32475;SDS011;18929;48.008;10.882;2022-10-31T02:42:32;9.50;;;4.00;;
32475;SDS011;18929;48.008;10.882;2022-10-31T02:45:06;9.38;;;3.83;;
32475;SDS011;18929;48.008;10.882;2022-10-31T02:47:39;10.63;;;4.32;;
32475;SDS011;18929;48.008;10.882;2022-10-31T02:50:08;9.05;;;3.88;;
32475;SDS011;18929;48.008;10.882;2022-10-31T02:52:40;9.55;;;3.90;;
32475;SDS011;18929;48.008;10.882;2022-10-31T02:55:11;10.00;;;4.05;;
32475;SDS011;18929;48.008;10.882;2022-10-31T02:58:00;12.38;;;3.92;;
32475;SDS011;18929;48.008;10.882;2022-10-31T03:00:30;10.52;;;3.78;;
32475;SDS011;18929;48.008;10.882;2022-10-31T03:03:06;10.20;;;3.85;;
32475;SDS011;18929;48.008;10.882;2022-10-31T03:05:41;9.52;;;3.55;;
32475;SDS011;18929;48.008;10.882;2022-10-31T03:08:21;13.48;;;4.03;;
32475;SDS011;18929;48.008;10.882;2022-10-31T03:10:54;11.27;;;3.65;;
32475;SDS011;18929;48.008;10.882;2022-10-31T03:13:25;11.18;;;3.85;;
32475;SDS011;18929;48.008;10.882;2022-10-31T03:16:01;13.00;;;3.15;;
32475;SDS011;18929;48.008;10.882;2022-10-31T03:18:37;10.65;;;3.47;;
32475;SDS011;18929;48.008;10.882;2022-10-31T03:21:07;12.00;;;3.60;;
32475;SDS011;18929;48.008;10.882;2022-10-31T03:26:07;9.35;;;3.70;;
32475;SDS011;18929;48.008;10.882;2022-10-31T03:28:36;10.70;;;4.07;;
32475;SDS011;18929;48.008;10.882;2022-10-31T03:31:04;12.57;;;3.70;;
32475;SDS011;18929;48.008;10.882;2022-10-31T03:33:34;10.10;;;3.90;;
32475;SDS011;18929;48.008;10.882;2022-10-31T03:36:04;10.77;;;3.42;;
32475;SDS011;18929;48.008;10.882;2022-10-31T03:38:34;9.85;;;3.78;;
32475;SDS011;18929;48.008;10.882;2022-10-31T03:41:03;8.88;;;3.85;;
32475;SDS011;18929;48.008;10.882;2022-10-31T03:43:43;13.23;;;3.70;;
32475;SDS011;18929;48.008;10.882;2022-10-31T03:46:18;9.55;;;3.75;;
32475;SDS011;18929;48.008;10.882;2022-10-31T03:48:46;14.25;;;4.53;;
32475;SDS011;18929;48.008;10.882;2022-10-31T03:51:14;11.95;;;3.83;;
32475;SDS011;18929;48.008;10.882;2022-10-31T03:53:50;9.63;;;3.55;;
32475;SDS011;18929;48.008;10.882;2022-10-31T03:56:22;7.38;;;3.50;;
32475;SDS011;18929;48.008;10.882;2022-10-31T03:58:57;9.40;;;3.53;;
32475;SDS011;18929;48.008;10.882;2022-10-31T04:03:57;8.90;;;4.03;;
32475;SDS011;18929;48.008;10.882;2022-10-31T04:06:25;14.25;;;3.28;;
32475;SDS011;18929;48.008;10.882;2022-10-31T04:08:54;7.10;;;3.20;;
32475;SDS011;18929;48.008;10.882;2022-10-31T04:11:24;11.65;;;3.75;;
32475;SDS011;18929;48.008;10.882;2022-10-31T04:13:54;8.57;;;3.17;;
32475;SDS011;18929;48.008;10.882;2022-10-31T04:16:23;9.95;;;3.58;;
32475;SDS011;18929;48.008;10.882;2022-10-31T04:18:52;8.90;;;3.60;;
32475;SDS011;18929;48.008;10.882;2022-10-31T04:21:25;8.60;;;3.72;;
32475;SDS011;18929;48.008;10.882;2022-10-31T04:23:54;9.05;;;3.30;;
32475;SDS011;18929;48.008;10.882;2022-10-31T04:26:21;9.48;;;3.30;;
32475;SDS011;18929;48.008;10.882;2022-10-31T04:28:50;13.68;;;4.28;;
32475;SDS011;18929;48.008;10.882;2022-10-31T04:31:17;13.55;;;3.63;;
32475;SDS011;18929;48.008;10.882;2022-10-31T04:33:44;10.65;;;3.90;;
32475;SDS011;18929;48.008;10.882;2022-10-31T04:36:12;12.07;;;4.15;;
32475;SDS011;18929;48.008;10.882;2022-10-31T04:38:40;10.10;;;3.58;;
32475;SDS011;18929;48.008;10.882;2022-10-31T04:41:07;9.30;;;3.42;;
32475;SDS011;18929;48.008;10.882;2022-10-31T04:43:34;6.85;;;3.17;;
32475;SDS011;18929;48.008;10.882;2022-10-31T04:46:01;7.80;;;3.50;;
32475;SDS011;18929;48.008;10.882;2022-10-31T04:48:28;8.45;;;3.28;;
32475;SDS011;18929;48.008;10.882;2022-10-31T04:50:58;8.38;;;3.30;;
32475;SDS011;18929;48.008;10.882;2022-10-31T04:53:25;9.50;;;3.42;;
32475;SDS011;18929;48.008;10.882;2022-10-31T04:55:57;12.45;;;3.95;;
32475;SDS011;18929;48.008;10.882;2022-10-31T04:58:24;7.45;;;3.13;;
32475;SDS011;18929;48.008;10.882;2022-10-31T05:00:51;14.70;;;3.60;;
32475;SDS011;18929;48.008;10.882;2022-10-31T05:03:19;13.10;;;3.53;;
32475;SDS011;18929;48.008;10.882;2022-10-31T05:05:46;9.52;;;4.22;;
32475;SDS011;18929;48.008;10.882;2022-10-31T05:11:00;12.85;;;5.13;;
32475;SDS011;18929;48.008;10.882;2022-10-31T05:13:28;14.48;;;6.43;;
32475;SDS011;18929;48.008;10.882;2022-10-31T05:15:56;14.15;;;6.82;;
32475;SDS011;18929;48.008;10.882;2022-10-31T05:18:23;12.93;;;5.95;;
32475;SDS011;18929;48.008;10.882;2022-10-31T05:20:50;15.52;;;5.03;;
32475;SDS011;18929;48.008;10.882;2022-10-31T05:23:17;12.30;;;4.75;;
32475;SDS011;18929;48.008;10.882;2022-10-31T05:25:44;10.77;;;5.07;;
32475;SDS011;18929;48.008;10.882;2022-10-31T05:28:12;16.83;;;5.13;;
32475;SDS011;18929;48.008;10.882;2022-10-31T05:30:39;12.80;;;4.95;;
32475;SDS011;18929;48.008;10.882;2022-10-31T05:33:06;12.20;;;4.72;;
32475;SDS011;18929;48.008;10.882;2022-10-31T05:35:33;8.85;;;4.68;;
32475;SDS011;18929;48.008;10.882;2022-10-31T05:38:00;12.05;;;4.60;;
32475;SDS011;18929;48.008;10.882;2022-10-31T05:40:27;11.13;;;4.63;;
32475;SDS011;18929;48.008;10.882;2022-10-31T05:42:55;11.23;;;4.70;;
32475;SDS011;18929;48.008;10.882;2022-10-31T05:45:24;8.25;;;3.67;;
32475;SDS011;18929;48.008;10.882;2022-10-31T05:47:52;12.00;;;4.25;;
32475;SDS011;18929;48.008;10.882;2022-10-31T05:50:19;10.95;;;3.72;;
32475;SDS011;18929;48.008;10.882;2022-10-31T05:52:47;11.48;;;4.00;;
32475;SDS011;18929;48.008;10.882;2022-10-31T05:55:20;9.43;;;4.20;;
32475;SDS011;18929;48.008;10.882;2022-10-31T05:57:47;10.25;;;3.75;;
32475;SDS011;18929;48.008;10.882;2022-10-31T06:00:22;7.78;;;3.53;;
32475;SDS011;18929;48.008;10.882;2022-10-31T06:02:57;9.60;;;3.70;;
32475;SDS011;18929;48.008;10.882;2022-10-31T06:05:25;5.90;;;3.08;;
32475;SDS011;18929;48.008;10.882;2022-10-31T06:07:52;6.57;;;3.30;;
32475;SDS011;18929;48.008;10.882;2022-10-31T06:10:19;9.18;;;3.30;;
32475;SDS011;18929;48.008;10.882;2022-10-31T06:12:46;10.82;;;3.72;;
32475;SDS011;18929;48.008;10.882;2022-10-31T06:15:13;7.93;;;3.25;;
32475;SDS011;18929;48.008;10.882;2022-10-31T06:17:42;9.50;;;3.80;;
32475;SDS011;18929;48.008;10.882;2022-10-31T06:20:10;10.88;;;3.67;;
32475;SDS011;18929;48.008;10.882;2022-10-31T06:22:38;6.40;;;3.45;;
32475;SDS011;18929;48.008;10.882;2022-10-31T06:25:06;11.73;;;3.50;;
32475;SDS011;18929;48.008;10.882;2022-10-31T06:27:33;11.25;;;3.67;;
32475;SDS011;18929;48.008;10.882;2022-10-31T06:30:00;7.40;;;3.60;;
32475;SDS011;18929;48.008;10.882;2022-10-31T06:32:27;7.78;;;2.95;;
32475;SDS011;18929;48.008;10.882;2022-10-31T06:34:55;8.93;;;3.15;;
32475;SDS011;18929;48.008;10.882;2022-10-31T06:37:22;9.27;;;3.42;;
32475;SDS011;18929;48.008;10.882;2022-10-31T06:39:49;6.75;;;3.15;;
32475;SDS011;18929;48.008;10.882;2022-10-31T06:42:16;8.77;;;3.22;;
32475;SDS011;18929;48.008;10.882;2022-10-31T06:44:43;7.35;;;3.03;;
32475;SDS011;18929;48.008;10.882;2022-10-31T06:47:11;7.65;;;3.53;;
32475;SDS011;18929;48.008;10.882;2022-10-31T06:49:38;8.88;;;3.22;;
32475;SDS011;18929;48.008;10.882;2022-10-31T06:52:06;8.73;;;3.63;;
32475;SDS011;18929;48.008;10.882;2022-10-31T06:54:33;7.63;;;2.85;;
32475;SDS011;18929;48.008;10.882;2022-10-31T06:57:00;9.05;;;3.67;;
32475;SDS011;18929;48.008;10.882;2022-10-31T06:59:27;9.55;;;3.40;;
32475;SDS011;18929;48.008;10.882;2022-10-31T07:01:54;8.88;;;3.70;;
32475;SDS011;18929;48.008;10.882;2022-10-31T07:04:21;8.38;;;3.55;;
32475;SDS011;18929;48.008;10.882;2022-10-31T07:06:50;6.93;;;3.35;;
32475;SDS011;18929;48.008;10.882;2022-10-31T07:09:18;11.68;;;5.53;;
32475;SDS011;18929;48.008;10.882;2022-10-31T07:11:45;14.43;;;5.10;;
32475;SDS011;18929;48.008;10.882;2022-10-31T07:14:12;12.45;;;4.60;;
32475;SDS011;18929;48.008;10.882;2022-10-31T07:16:39;14.52;;;4.43;;
32475;SDS011;18929;48.008;10.882;2022-10-31T07:19:06;8.55;;;4.40;;
32475;SDS011;18929;48.008;10.882;2022-10-31T07:21:33;14.38;;;5.07;;
32475;SDS011;18929;48.008;10.882;2022-10-31T07:24:00;9.68;;;4.38;;
32475;SDS011;18929;48.008;10.882;2022-10-31T07:26:28;10.38;;;4.10;;
32475;SDS011;18929;48.008;10.882;2022-10-31T07:28:55;16.25;;;7.15;;
32475;SDS011;18929;48.008;10.882;2022-10-31T07:31:24;12.15;;;5.05;;
32475;SDS011;18929;48.008;10.882;2022-10-31T07:33:51;13.35;;;4.93;;
32475;SDS011;18929;48.008;10.882;2022-10-31T07:36:18;7.82;;;4.05;;
32475;SDS011;18929;48.008;10.882;2022-10-31T07:38:45;13.10;;;4.40;;
32475;SDS011;18929;48.008;10.882;2022-10-31T07:41:11;15.05;;;4.85;;
32475;SDS011;18929;48.008;10.882;2022-10-31T07:43:40;10.13;;;4.10;;
32475;SDS011;18929;48.008;10.882;2022-10-31T07:46:07;10.00;;;3.97;;
32475;SDS011;18929;48.008;10.882;2022-10-31T07:48:34;13.27;;;4.45;;
32475;SDS011;18929;48.008;10.882;2022-10-31T07:51:01;11.52;;;4.07;;
32475;SDS011;18929;48.008;10.882;2022-10-31T07:53:28;12.05;;;4.00;;
32475;SDS011;18929;48.008;10.882;2022-10-31T07:55:55;23.52;;;9.27;;
32475;SDS011;18929;48.008;10.882;2022-10-31T07:58:21;25.55;;;7.30;;
32475;SDS011;18929;48.008;10.882;2022-10-31T08:00:50;23.52;;;6.32;;
32475;SDS011;18929;48.008;10.882;2022-10-31T08:03:18;13.82;;;5.03;;
32475;SDS011;18929;48.008;10.882;2022-10-31T08:05:46;17.80;;;5.93;;
32475;SDS011;18929;48.008;10.882;2022-10-31T08:08:13;10.65;;;4.65;;
32475;SDS011;18929;48.008;10.882;2022-10-31T08:10:44;12.63;;;4.90;;
32475;SDS011;18929;48.008;10.882;2022-10-31T08:13:12;19.48;;;4.97;;
32475;SDS011;18929;48.008;10.882;2022-10-31T08:15:40;10.60;;;4.82;;
32475;SDS011;18929;48.008;10.882;2022-10-31T08:18:12;14.80;;;5.15;;
32475;SDS011;18929;48.008;10.882;2022-10-31T08:23:19;12.85;;;3.92;;
32475;SDS011;18929;48.008;10.882;2022-10-31T08:25:46;12.50;;;4.10;;
32475;SDS011;18929;48.008;10.882;2022-10-31T08:28:14;12.70;;;4.30;;
32475;SDS011;18929;48.008;10.882;2022-10-31T08:30:41;9.02;;;4.28;;
32475;SDS011;18929;48.008;10.882;2022-10-31T08:33:09;19.45;;;4.10;;
32475;SDS011;18929;48.008;10.882;2022-10-31T08:35:38;9.25;;;3.85;;
32475;SDS011;18929;48.008;10.882;2022-10-31T08:38:05;18.73;;;4.40;;
32475;SDS011;18929;48.008;10.882;2022-10-31T08:40:34;13.82;;;4.40;;
32475;SDS011;18929;48.008;10.882;2022-10-31T08:43:02;14.38;;;4.00;;
32475;SDS011;18929;48.008;10.882;2022-10-31T08:45:31;11.07;;;4.30;;
32475;SDS011;18929;48.008;10.882;2022-10-31T08:48:00;16.95;;;4.60;;
32475;SDS011;18929;48.008;10.882;2022-10-31T08:50:29;13.30;;;4.93;;
32475;SDS011;18929;48.008;10.882;2022-10-31T08:53:02;12.75;;;3.72;;
32475;SDS011;18929;48.008;10.882;2022-10-31T08:55:30;10.18;;;3.85;;
32475;SDS011;18929;48.008;10.882;2022-10-31T08:57:57;14.23;;;4.38;;
32475;SDS011;18929;48.008;10.882;2022-10-31T09:00:24;17.40;;;4.07;;
32475;SDS011;18929;48.008;10.882;2022-10-31T09:02:55;14.25;;;4.07;;
32475;SDS011;18929;48.008;10.882;2022-10-31T09:05:23;19.77;;;4.63;;
32475;SDS011;18929;48.008;10.882;2022-10-31T09:07:50;13.32;;;3.88;;
32475;SDS011;18929;48.008;10.882;2022-10-31T09:10:18;11.90;;;3.95;;
32475;SDS011;18929;48.008;10.882;2022-10-31T09:12:45;11.15;;;3.75;;
32475;SDS011;18929;48.008;10.882;2022-10-31T09:15:12;15.13;;;4.07;;
32475;SDS011;18929;48.008;10.882;2022-10-31T09:17:45;11.30;;;3.65;;
32475;SDS011;18929;48.008;10.882;2022-10-31T09:20:12;14.45;;;3.80;;
32475;SDS011;18929;48.008;10.882;2022-10-31T09:22:39;18.63;;;3.78;;
32475;SDS011;18929;48.008;10.882;2022-10-31T09:25:07;15.98;;;4.70;;
32475;SDS011;18929;48.008;10.882;2022-10-31T09:27:36;21.45;;;5.03;;
32475;SDS011;18929;48.008;10.882;2022-10-31T09:30:03;17.55;;;4.65;;
32475;SDS011;18929;48.008;10.882;2022-10-31T09:32:31;18.83;;;4.32;;
32475;SDS011;18929;48.008;10.882;2022-10-31T09:34:58;16.55;;;4.95;;
32475;SDS011;18929;48.008;10.882;2022-10-31T09:37:25;14.60;;;4.57;;
32475;SDS011;18929;48.008;10.882;2022-10-31T09:39:52;13.90;;;4.20;;
32475;SDS011;18929;48.008;10.882;2022-10-31T09:42:28;18.13;;;4.65;;
32475;SDS011;18929;48.008;10.882;2022-10-31T09:45:16;22.80;;;5.28;;
32475;SDS011;18929;48.008;10.882;2022-10-31T09:47:51;22.92;;;5.40;;
32475;SDS011;18929;48.008;10.882;2022-10-31T09:50:28;15.80;;;4.90;;
32475;SDS011;18929;48.008;10.882;2022-10-31T09:53:03;16.45;;;4.43;;
32475;SDS011;18929;48.008;10.882;2022-10-31T09:55:38;13.20;;;3.20;;
32475;SDS011;18929;48.008;10.882;2022-10-31T09:58:09;13.82;;;3.78;;
32475;SDS011;18929;48.008;10.882;2022-10-31T10:00:43;13.52;;;3.15;;
32475;SDS011;18929;48.008;10.882;2022-10-31T10:03:12;10.50;;;2.90;;
32475;SDS011;18929;48.008;10.882;2022-10-31T10:05:50;11.80;;;2.88;;
32475;SDS011;18929;48.008;10.882;2022-10-31T10:08:21;16.08;;;4.07;;
32475;SDS011;18929;48.008;10.882;2022-10-31T10:10:54;16.42;;;3.53;;
32475;SDS011;18929;48.008;10.882;2022-10-31T10:13:34;15.27;;;3.58;;
32475;SDS011;18929;48.008;10.882;2022-10-31T10:18:50;14.43;;;2.88;;
32475;SDS011;18929;48.008;10.882;2022-10-31T10:21:30;13.25;;;2.88;;
32475;SDS011;18929;48.008;10.882;2022-10-31T10:24:07;8.30;;;2.85;;
32475;SDS011;18929;48.008;10.882;2022-10-31T10:26:47;13.02;;;3.17;;
32475;SDS011;18929;48.008;10.882;2022-10-31T10:29:27;13.52;;;3.50;;
32475;SDS011;18929;48.008;10.882;2022-10-31T10:32:01;13.77;;;3.20;;
32475;SDS011;18929;48.008;10.882;2022-10-31T10:34:33;16.38;;;3.95;;
32475;SDS011;18929;48.008;10.882;2022-10-31T10:37:03;15.02;;;3.05;;
32475;SDS011;18929;48.008;10.882;2022-10-31T10:39:36;14.07;;;3.20;;
32475;SDS011;18929;48.008;10.882;2022-10-31T10:42:07;8.88;;;3.25;;
32475;SDS011;18929;48.008;10.882;2022-10-31T10:44:57;12.70;;;3.40;;
32475;SDS011;18929;48.008;10.882;2022-10-31T10:47:43;13.32;;;3.30;;
32475;SDS011;18929;48.008;10.882;2022-10-31T10:50:15;10.82;;;3.17;;
32475;SDS011;18929;48.008;10.882;2022-10-31T10:52:47;10.60;;;3.38;;
32475;SDS011;18929;48.008;10.882;2022-10-31T10:55:26;13.93;;;3.55;;
32475;SDS011;18929;48.008;10.882;2022-10-31T10:58:00;13.18;;;3.28;;
32475;SDS011;18929;48.008;10.882;2022-10-31T11:00:31;14.90;;;3.53;;
32475;SDS011;18929;48.008;10.882;2022-10-31T11:03:01;13.73;;;3.20;;
32475;SDS011;18929;48.008;10.882;2022-10-31T11:05:33;17.10;;;3.55;;
32475;SDS011;18929;48.008;10.882;2022-10-31T11:08:03;17.60;;;3.75;;
32475;SDS011;18929;48.008;10.882;2022-10-31T11:10:31;18.73;;;3.53;;
32475;SDS011;18929;48.008;10.882;2022-10-31T11:13:01;14.25;;;4.18;;
32475;SDS011;18929;48.008;10.882;2022-10-31T11:15:50;15.57;;;3.50;;
32475;SDS011;18929;48.008;10.882;2022-10-31T11:18:23;16.75;;;3.58;;
32475;SDS011;18929;48.008;10.882;2022-10-31T11:20:52;14.70;;;4.53;;
32475;SDS011;18929;48.008;10.882;2022-10-31T11:23:21;10.90;;;3.42;;
32475;SDS011;18929;48.008;10.882;2022-10-31T11:25:53;11.25;;;3.28;;
32475;SDS011;18929;48.008;10.882;2022-10-31T11:28:22;12.82;;;3.15;;
32475;SDS011;18929;48.008;10.882;2022-10-31T11:30:51;11.70;;;2.85;;
32475;SDS011;18929;48.008;10.882;2022-10-31T11:33:22;13.02;;;3.25;;
32475;SDS011;18929;48.008;10.882;2022-10-31T11:35:57;14.40;;;3.53;;
32475;SDS011;18929;48.008;10.882;2022-10-31T11:38:27;13.57;;;3.10;;
32475;SDS011;18929;48.008;10.882;2022-10-31T11:41:00;14.80;;;3.88;;
32475;SDS011;18929;48.008;10.882;2022-10-31T11:43:36;13.57;;;3.67;;
32475;SDS011;18929;48.008;10.882;2022-10-31T11:46:09;12.65;;;4.22;;
32475;SDS011;18929;48.008;10.882;2022-10-31T11:48:37;16.70;;;3.58;;
32475;SDS011;18929;48.008;10.882;2022-10-31T11:51:04;14.52;;;3.80;;
32475;SDS011;18929;48.008;10.882;2022-10-31T11:53:32;14.35;;;3.50;;
32475;SDS011;18929;48.008;10.882;2022-10-31T11:56:05;13.70;;;3.65;;
32475;SDS011;18929;48.008;10.882;2022-10-31T11:58:38;15.85;;;3.90;;
32475;SDS011;18929;48.008;10.882;2022-10-31T12:01:08;16.30;;;3.90;;
32475;SDS011;18929;48.008;10.882;2022-10-31T12:03:53;13.85;;;4.05;;
32475;SDS011;18929;48.008;10.882;2022-10-31T12:06:28;19.10;;;3.95;;
32475;SDS011;18929;48.008;10.882;2022-10-31T12:08:57;20.67;;;3.90;;
32475;SDS011;18929;48.008;10.882;2022-10-31T12:11:35;16.08;;;4.40;;
32475;SDS011;18929;48.008;10.882;2022-10-31T12:14:14;15.20;;;4.40;;
32475;SDS011;18929;48.008;10.882;2022-10-31T12:16:55;15.73;;;3.85;;
32475;SDS011;18929;48.008;10.882;2022-10-31T12:19:27;17.80;;;3.95;;
32475;SDS011;18929;48.008;10.882;2022-10-31T12:22:07;12.35;;;3.92;;
32475;SDS011;18929;48.008;10.882;2022-10-31T12:24:43;12.43;;;3.38;;
32475;SDS011;18929;48.008;10.882;2022-10-31T12:27:27;12.68;;;4.72;;
32475;SDS011;18929;48.008;10.882;2022-10-31T12:30:03;14.98;;;3.90;;
32475;SDS011;18929;48.008;10.882;2022-10-31T12:32:43;10.75;;;4.47;;
32475;SDS011;18929;48.008;10.882;2022-10-31T12:35:26;15.10;;;5.00;;
32475;SDS011;18929;48.008;10.882;2022-10-31T12:38:04;17.25;;;4.20;;
32475;SDS011;18929;48.008;10.882;2022-10-31T12:40:47;12.77;;;3.25;;
32475;SDS011;18929;48.008;10.882;2022-10-31T12:43:26;18.63;;;3.83;;
32475;SDS011;18929;48.008;10.882;2022-10-31T12:46:02;21.10;;;4.70;;
32475;SDS011;18929;48.008;10.882;2022-10-31T12:51:32;13.52;;;3.63;;
32475;SDS011;18929;48.008;10.882;2022-10-31T12:54:12;13.25;;;3.20;;
32475;SDS011;18929;48.008;10.882;2022-10-31T12:56:52;14.90;;;3.65;;
32475;SDS011;18929;48.008;10.882;2022-10-31T12:59:26;13.48;;;3.85;;
32475;SDS011;18929;48.008;10.882;2022-10-31T13:01:57;17.47;;;3.70;;
32475;SDS011;18929;48.008;10.882;2022-10-31T13:04:33;18.15;;;4.00;;
32475;SDS011;18929;48.008;10.882;2022-10-31T13:07:08;21.98;;;4.70;;
32475;SDS011;18929;48.008;10.882;2022-10-31T13:09:42;11.23;;;3.45;;
32475;SDS011;18929;48.008;10.882;2022-10-31T13:12:15;13.15;;;3.38;;
32475;SDS011;18929;48.008;10.882;2022-10-31T13:14:46;20.10;;;3.85;;
32475;SDS011;18929;48.008;10.882;2022-10-31T13:17:16;20.70;;;3.78;;
32475;SDS011;18929;48.008;10.882;2022-10-31T13:19:52;16.25;;;3.80;;
32475;SDS011;18929;48.008;10.882;2022-10-31T13:22:24;13.68;;;3.40;;
32475;SDS011;18929;48.008;10.882;2022-10-31T13:24:56;18.90;;;3.83;;
32475;SDS011;18929;48.008;10.882;2022-10-31T13:27:29;12.80;;;3.60;;
32475;SDS011;18929;48.008;10.882;2022-10-31T13:30:12;21.05;;;5.05;;
32475;SDS011;18929;48.008;10.882;2022-10-31T13:32:43;15.05;;;5.32;;
32475;SDS011;18929;48.008;10.882;2022-10-31T13:35:19;17.23;;;5.75;;
32475;SDS011;18929;48.008;10.882;2022-10-31T13:37:52;12.88;;;4.50;;
32475;SDS011;18929;48.008;10.882;2022-10-31T13:40:33;22.75;;;5.18;;
32475;SDS011;18929;48.008;10.882;2022-10-31T13:43:10;15.88;;;4.72;;
32475;SDS011;18929;48.008;10.882;2022-10-31T13:45:49;19.67;;;4.30;;
32475;SDS011;18929;48.008;10.882;2022-10-31T13:48:28;17.48;;;4.43;;
32475;SDS011;18929;48.008;10.882;2022-10-31T13:53:35;11.35;;;3.28;;
32475;SDS011;18929;48.008;10.882;2022-10-31T13:56:23;13.95;;;3.72;;
32475;SDS011;18929;48.008;10.882;2022-10-31T13:59:14;14.45;;;3.63;;
32475;SDS011;18929;48.008;10.882;2022-10-31T14:01:47;9.55;;;2.70;;
32475;SDS011;18929;48.008;10.882;2022-10-31T14:04:16;14.77;;;3.60;;
32475;SDS011;18929;48.008;10.882;2022-10-31T14:06:47;18.45;;;3.90;;
32475;SDS011;18929;48.008;10.882;2022-10-31T14:09:27;14.43;;;3.72;;
32475;SDS011;18929;48.008;10.882;2022-10-31T14:11:59;16.63;;;3.30;;
32475;SDS011;18929;48.008;10.882;2022-10-31T14:14:32;12.02;;;3.40;;
32475;SDS011;18929;48.008;10.882;2022-10-31T14:17:21;17.00;;;3.67;;
32475;SDS011;18929;48.008;10.882;2022-10-31T14:19:56;16.17;;;3.38;;
32475;SDS011;18929;48.008;10.882;2022-10-31T14:22:32;16.15;;;3.05;;
32475;SDS011;18929;48.008;10.882;2022-10-31T14:27:45;18.92;;;3.25;;
32475;SDS011;18929;48.008;10.882;2022-10-31T14:30:18;12.40;;;3.28;;
32475;SDS011;18929;48.008;10.882;2022-10-31T14:33:09;14.68;;;4.07;;
32475;SDS011;18929;48.008;10.882;2022-10-31T14:35:46;15.63;;;3.83;;
32475;SDS011;18929;48.008;10.882;2022-10-31T14:38:28;16.90;;;4.43;;
32475;SDS011;18929;48.008;10.882;2022-10-31T14:41:21;15.98;;;4.60;;
32475;SDS011;18929;48.008;10.882;2022-10-31T14:44:17;20.10;;;7.35;;
32475;SDS011;18929;48.008;10.882;2022-10-31T14:47:10;25.08;;;7.80;;
32475;SDS011;18929;48.008;10.882;2022-10-31T14:52:47;20.55;;;6.93;;
32475;SDS011;18929;48.008;10.882;2022-10-31T14:55:17;20.65;;;7.00;;
32475;SDS011;18929;48.008;10.882;2022-10-31T14:57:47;20.48;;;7.45;;
32475;SDS011;18929;48.008;10.882;2022-10-31T15:00:18;17.83;;;7.80;;
32475;SDS011;18929;48.008;10.882;2022-10-31T15:02:49;20.67;;;7.63;;
32475;SDS011;18929;48.008;10.882;2022-10-31T15:05:31;15.57;;;6.47;;
32475;SDS011;18929;48.008;10.882;2022-10-31T15:08:00;18.10;;;7.38;;
32475;SDS011;18929;48.008;10.882;2022-10-31T15:10:29;20.27;;;6.07;;
32475;SDS011;18929;48.008;10.882;2022-10-31T15:13:08;19.23;;;8.13;;
32475;SDS011;18929;48.008;10.882;2022-10-31T15:15:36;17.95;;;6.65;;